sensor_id;sensor_type;location;lat;lon;timestamp;temperature;humidity
9057;DHT22;4563;54.756;9.400;2023-01-24T00:01:06;5.70;73.40
9057;DHT22;4563;54.756;9.400;2023-01-24T00:03:35;5.70;73.30
9057;DHT22;4563;54.756;9.400;2023-01-24T00:06:02;5.70;73.20
9057;DHT22;4563;54.756;9.400;2023-01-24T00:08:29;5.70;73.10
9057;DHT22;4563;54.756;9.400;2023-01-24T00:11:00;5.70;73.00
9057;DHT22;4563;54.756;9.400;2023-01-24T00:13:27;5.70;73.00
9057;DHT22;4563;54.756;9.400;2023-01-24T00:16:05;5.70;73.00
9057;DHT22;4563;54.756;9.400;2023-01-24T00:18:32;5.60;73.00
9057;DHT22;4563;54.756;9.400;2023-01-24T00:21:05;5.60;73.20
9057;DHT22;4563;54.756;9.400;2023-01-24T00:23:34;5.70;73.30
9057;DHT22;4563;54.756;9.400;2023-01-24T00:26:02;5.70;73.30
9057;DHT22;4563;54.756;9.400;2023-01-24T00:28:29;5.60;73.20
9057;DHT22;4563;54.756;9.400;2023-01-24T00:30:56;5.60;73.10
9057;DHT22;4563;54.756;9.400;2023-01-24T00:33:23;5.60;73.00
9057;DHT22;4563;54.756;9.400;2023-01-24T00:35:51;5.60;73.00
9057;DHT22;4563;54.756;9.400;2023-01-24T00:38:21;5.60;73.20
9057;DHT22;4563;54.756;9.400;2023-01-24T00:40:48;5.60;73.20
9057;DHT22;4563;54.756;9.400;2023-01-24T00:43:15;5.60;73.10
9057;DHT22;4563;54.756;9.400;2023-01-24T00:45:44;5.60;73.10
9057;DHT22;4563;54.756;9.400;2023-01-24T00:48:12;5.60;73.00
9057;DHT22;4563;54.756;9.400;2023-01-24T00:50:39;5.60;73.10
9057;DHT22;4563;54.756;9.400;2023-01-24T00:53:06;5.60;73.00
9057;DHT22;4563;54.756;9.400;2023-01-24T00:55:40;5.60;73.10
9057;DHT22;4563;54.756;9.400;2023-01-24T00:58:07;5.60;73.20
9057;DHT22;4563;54.756;9.400;2023-01-24T01:00:34;5.50;73.10
9057;DHT22;4563;54.756;9.400;2023-01-24T01:03:04;5.50;73.10
9057;DHT22;4563;54.756;9.400;2023-01-24T01:05:31;5.50;73.10
9057;DHT22;4563;54.756;9.400;2023-01-24T01:07:58;5.50;72.90
9057;DHT22;4563;54.756;9.400;2023-01-24T01:10:25;5.60;73.10
9057;DHT22;4563;54.756;9.400;2023-01-24T01:12:53;5.50;72.90
9057;DHT22;4563;54.756;9.400;2023-01-24T01:15:20;5.50;72.80
9057;DHT22;4563;54.756;9.400;2023-01-24T01:17:47;5.50;72.70
9057;DHT22;4563;54.756;9.400;2023-01-24T01:20:14;5.50;72.70
9057;DHT22;4563;54.756;9.400;2023-01-24T01:22:41;5.50;72.70
9057;DHT22;4563;54.756;9.400;2023-01-24T01:25:08;5.50;72.70
9057;DHT22;4563;54.756;9.400;2023-01-24T01:27:35;5.50;72.70
9057;DHT22;4563;54.756;9.400;2023-01-24T01:30:04;5.50;72.80
9057;DHT22;4563;54.756;9.400;2023-01-24T01:32:31;5.50;72.90
9057;DHT22;4563;54.756;9.400;2023-01-24T01:34:58;5.50;72.80
9057;DHT22;4563;54.756;9.400;2023-01-24T01:37:25;5.50;72.90
9057;DHT22;4563;54.756;9.400;2023-01-24T01:39:52;5.50;72.90
9057;DHT22;4563;54.756;9.400;2023-01-24T01:42:19;5.50;72.70
9057;DHT22;4563;54.756;9.400;2023-01-24T01:44:47;5.50;72.70
9057;DHT22;4563;54.756;9.400;2023-01-24T01:47:23;5.50;72.60
9057;DHT22;4563;54.756;9.400;2023-01-24T01:49:57;5.50;72.70
9057;DHT22;4563;54.756;9.400;2023-01-24T01:52:26;5.50;72.70
9057;DHT22;4563;54.756;9.400;2023-01-24T01:54:55;5.50;72.80
9057;DHT22;4563;54.756;9.400;2023-01-24T01:57:28;5.50;72.90
9057;DHT22;4563;54.756;9.400;2023-01-24T02:00:00;5.40;72.70
9057;DHT22;4563;54.756;9.400;2023-01-24T02:02:30;5.50;73.40
9057;DHT22;4563;54.756;9.400;2023-01-24T02:05:00;5.50;72.70
9057;DHT22;4563;54.756;9.400;2023-01-24T02:07:31;5.50;72.80
9057;DHT22;4563;54.756;9.400;2023-01-24T02:10:00;5.40;72.80
9057;DHT22;4563;54.756;9.400;2023-01-24T02:12:30;5.40;72.70
9057;DHT22;4563;54.756;9.400;2023-01-24T02:15:03;5.50;72.80
9057;DHT22;4563;54.756;9.400;2023-01-24T02:17:58;5.50;72.90
9057;DHT22;4563;54.756;9.400;2023-01-24T02:20:36;5.40;72.90
9057;DHT22;4563;54.756;9.400;2023-01-24T02:23:13;5.40;72.90
9057;DHT22;4563;54.756;9.400;2023-01-24T02:25:46;5.40;72.90
9057;DHT22;4563;54.756;9.400;2023-01-24T02:28:16;5.50;73.00
9057;DHT22;4563;54.756;9.400;2023-01-24T02:30:44;5.40;72.80
9057;DHT22;4563;54.756;9.400;2023-01-24T02:33:13;5.40;72.80
9057;DHT22;4563;54.756;9.400;2023-01-24T02:35:41;5.50;72.90
9057;DHT22;4563;54.756;9.400;2023-01-24T02:38:15;5.50;73.00
9057;DHT22;4563;54.756;9.400;2023-01-24T02:40:43;5.50;73.10
9057;DHT22;4563;54.756;9.400;2023-01-24T02:43:12;5.40;73.00
9057;DHT22;4563;54.756;9.400;2023-01-24T02:45:41;5.40;73.00
9057;DHT22;4563;54.756;9.400;2023-01-24T02:48:08;5.40;72.90
9057;DHT22;4563;54.756;9.400;2023-01-24T02:50:35;5.40;73.00
9057;DHT22;4563;54.756;9.400;2023-01-24T02:53:16;5.40;73.00
9057;DHT22;4563;54.756;9.400;2023-01-24T02:56:08;5.40;73.10
9057;DHT22;4563;54.756;9.400;2023-01-24T02:58:53;5.40;73.10
9057;DHT22;4563;54.756;9.400;2023-01-24T03:01:22;5.40;73.20
9057;DHT22;4563;54.756;9.400;2023-01-24T03:03:50;5.40;73.20
9057;DHT22;4563;54.756;9.400;2023-01-24T03:06:17;5.40;73.20
9057;DHT22;4563;54.756;9.400;2023-01-24T03:08:44;5.50;73.30
9057;DHT22;4563;54.756;9.400;2023-01-24T03:11:11;5.40;73.10
9057;DHT22;4563;54.756;9.400;2023-01-24T03:13:38;5.40;73.10
9057;DHT22;4563;54.756;9.400;2023-01-24T03:16:24;5.40;73.90
9057;DHT22;4563;54.756;9.400;2023-01-24T03:19:09;5.40;73.20
9057;DHT22;4563;54.756;9.400;2023-01-24T03:21:53;5.40;73.20
9057;DHT22;4563;54.756;9.400;2023-01-24T03:24:37;5.40;73.30
9057;DHT22;4563;54.756;9.400;2023-01-24T03:27:22;5.40;73.30
9057;DHT22;4563;54.756;9.400;2023-01-24T03:30:08;5.40;73.30
9057;DHT22;4563;54.756;9.400;2023-01-24T03:32:59;5.40;73.30
9057;DHT22;4563;54.756;9.400;2023-01-24T03:35:43;5.40;73.50
9057;DHT22;4563;54.756;9.400;2023-01-24T03:38:19;5.40;73.30
9057;DHT22;4563;54.756;9.400;2023-01-24T03:41:04;5.40;73.30
9057;DHT22;4563;54.756;9.400;2023-01-24T03:43:31;5.30;73.10
9057;DHT22;4563;54.756;9.400;2023-01-24T03:45:58;5.40;73.20
9057;DHT22;4563;54.756;9.400;2023-01-24T03:48:26;5.40;73.10
9057;DHT22;4563;54.756;9.400;2023-01-24T03:51:00;5.40;73.20
9057;DHT22;4563;54.756;9.400;2023-01-24T03:53:44;5.30;73.10
9057;DHT22;4563;54.756;9.400;2023-01-24T03:56:11;5.40;73.20
9057;DHT22;4563;54.756;9.400;2023-01-24T03:58:37;5.40;73.30
9057;DHT22;4563;54.756;9.400;2023-01-24T04:01:04;5.40;73.20
9057;DHT22;4563;54.756;9.400;2023-01-24T04:03:32;5.40;73.20
9057;DHT22;4563;54.756;9.400;2023-01-24T04:06:00;5.40;73.20
9057;DHT22;4563;54.756;9.400;2023-01-24T04:08:26;5.30;73.00
9057;DHT22;4563;54.756;9.400;2023-01-24T04:10:55;5.40;73.10
9057;DHT22;4563;54.756;9.400;2023-01-24T04:13:22;5.40;73.20
9057;DHT22;4563;54.756;9.400;2023-01-24T04:15:49;5.30;73.00
9057;DHT22;4563;54.756;9.400;2023-01-24T04:18:16;5.40;73.10
9057;DHT22;4563;54.756;9.400;2023-01-24T04:20:44;5.40;73.10
9057;DHT22;4563;54.756;9.400;2023-01-24T04:23:11;5.40;73.10
9057;DHT22;4563;54.756;9.400;2023-01-24T04:25:38;5.40;73.20
9057;DHT22;4563;54.756;9.400;2023-01-24T04:28:05;5.40;73.20
9057;DHT22;4563;54.756;9.400;2023-01-24T04:30:32;5.40;73.10
9057;DHT22;4563;54.756;9.400;2023-01-24T04:32:59;5.40;73.10
9057;DHT22;4563;54.756;9.400;2023-01-24T04:35:27;5.40;73.10
9057;DHT22;4563;54.756;9.400;2023-01-24T04:37:58;5.40;73.10
9057;DHT22;4563;54.756;9.400;2023-01-24T04:40:25;5.40;73.10
9057;DHT22;4563;54.756;9.400;2023-01-24T04:42:54;5.30;73.00
9057;DHT22;4563;54.756;9.400;2023-01-24T04:45:21;5.30;73.10
9057;DHT22;4563;54.756;9.400;2023-01-24T04:47:48;5.40;73.10
9057;DHT22;4563;54.756;9.400;2023-01-24T04:50:15;5.40;72.30
9057;DHT22;4563;54.756;9.400;2023-01-24T04:52:42;5.30;72.90
9057;DHT22;4563;54.756;9.400;2023-01-24T04:55:10;5.30;72.90
9057;DHT22;4563;54.756;9.400;2023-01-24T04:57:37;5.30;72.80
9057;DHT22;4563;54.756;9.400;2023-01-24T05:00:05;5.30;72.90
9057;DHT22;4563;54.756;9.400;2023-01-24T05:02:33;5.30;73.00
9057;DHT22;4563;54.756;9.400;2023-01-24T05:05:00;5.30;73.00
9057;DHT22;4563;54.756;9.400;2023-01-24T05:07:27;5.30;72.90
9057;DHT22;4563;54.756;9.400;2023-01-24T05:09:54;5.30;72.90
9057;DHT22;4563;54.756;9.400;2023-01-24T05:12:22;5.30;72.90
9057;DHT22;4563;54.756;9.400;2023-01-24T05:14:49;5.30;72.90
9057;DHT22;4563;54.756;9.400;2023-01-24T05:17:16;5.30;72.90
9057;DHT22;4563;54.756;9.400;2023-01-24T05:19:42;5.30;72.80
9057;DHT22;4563;54.756;9.400;2023-01-24T05:22:09;5.30;72.80
9057;DHT22;4563;54.756;9.400;2023-01-24T05:24:36;5.30;72.80
9057;DHT22;4563;54.756;9.400;2023-01-24T05:27:03;5.30;72.80
9057;DHT22;4563;54.756;9.400;2023-01-24T05:29:31;5.30;72.80
9057;DHT22;4563;54.756;9.400;2023-01-24T05:31:58;5.30;72.80
9057;DHT22;4563;54.756;9.400;2023-01-24T05:34:24;5.30;72.80
9057;DHT22;4563;54.756;9.400;2023-01-24T05:36:51;5.30;72.80
9057;DHT22;4563;54.756;9.400;2023-01-24T05:39:18;5.30;72.80
9057;DHT22;4563;54.756;9.400;2023-01-24T05:41:45;5.30;72.80
9057;DHT22;4563;54.756;9.400;2023-01-24T05:44:11;5.30;72.80
9057;DHT22;4563;54.756;9.400;2023-01-24T05:46:40;5.30;72.80
9057;DHT22;4563;54.756;9.400;2023-01-24T05:49:07;5.30;72.80
9057;DHT22;4563;54.756;9.400;2023-01-24T05:51:34;5.30;72.80
9057;DHT22;4563;54.756;9.400;2023-01-24T05:54:01;5.30;72.70
9057;DHT22;4563;54.756;9.400;2023-01-24T05:56:27;5.30;72.70
9057;DHT22;4563;54.756;9.400;2023-01-24T05:58:54;5.30;72.80
9057;DHT22;4563;54.756;9.400;2023-01-24T06:01:22;5.20;72.70
9057;DHT22;4563;54.756;9.400;2023-01-24T06:03:51;5.30;72.80
9057;DHT22;4563;54.756;9.400;2023-01-24T06:06:21;5.30;72.80
9057;DHT22;4563;54.756;9.400;2023-01-24T06:08:48;5.30;72.80
9057;DHT22;4563;54.756;9.400;2023-01-24T06:11:17;5.30;72.80
9057;DHT22;4563;54.756;9.400;2023-01-24T06:13:45;5.30;72.90
9057;DHT22;4563;54.756;9.400;2023-01-24T06:16:13;5.30;73.00
9057;DHT22;4563;54.756;9.400;2023-01-24T06:18:40;5.30;73.00
9057;DHT22;4563;54.756;9.400;2023-01-24T06:21:16;5.20;73.00
9057;DHT22;4563;54.756;9.400;2023-01-24T06:23:45;5.30;73.10
9057;DHT22;4563;54.756;9.400;2023-01-24T06:26:12;5.30;73.10
9057;DHT22;4563;54.756;9.400;2023-01-24T06:28:39;5.30;73.10
9057;DHT22;4563;54.756;9.400;2023-01-24T06:31:15;5.30;73.10
9057;DHT22;4563;54.756;9.400;2023-01-24T06:34:16;5.30;73.10
9057;DHT22;4563;54.756;9.400;2023-01-24T06:36:54;5.30;73.20
9057;DHT22;4563;54.756;9.400;2023-01-24T06:39:25;5.30;73.20
9057;DHT22;4563;54.756;9.400;2023-01-24T06:41:53;5.30;73.10
9057;DHT22;4563;54.756;9.400;2023-01-24T06:44:20;5.30;73.10
9057;DHT22;4563;54.756;9.400;2023-01-24T06:46:47;5.30;73.10
9057;DHT22;4563;54.756;9.400;2023-01-24T06:49:14;5.20;73.00
9057;DHT22;4563;54.756;9.400;2023-01-24T06:51:41;5.20;72.80
9057;DHT22;4563;54.756;9.400;2023-01-24T06:54:09;5.20;72.80
9057;DHT22;4563;54.756;9.400;2023-01-24T06:56:36;5.30;72.90
9057;DHT22;4563;54.756;9.400;2023-01-24T06:59:02;5.20;72.80
9057;DHT22;4563;54.756;9.400;2023-01-24T07:01:29;5.20;72.80
9057;DHT22;4563;54.756;9.400;2023-01-24T07:03:56;5.20;72.80
9057;DHT22;4563;54.756;9.400;2023-01-24T07:06:23;5.30;72.90
9057;DHT22;4563;54.756;9.400;2023-01-24T07:08:50;5.30;72.90
9057;DHT22;4563;54.756;9.400;2023-01-24T07:11:19;5.20;72.80
9057;DHT22;4563;54.756;9.400;2023-01-24T07:13:48;5.20;72.80
9057;DHT22;4563;54.756;9.400;2023-01-24T07:16:15;5.20;72.80
9057;DHT22;4563;54.756;9.400;2023-01-24T07:18:42;5.20;72.70
9057;DHT22;4563;54.756;9.400;2023-01-24T07:21:10;5.20;72.80
9057;DHT22;4563;54.756;9.400;2023-01-24T07:23:37;5.20;72.80
9057;DHT22;4563;54.756;9.400;2023-01-24T07:26:07;5.20;72.80
9057;DHT22;4563;54.756;9.400;2023-01-24T07:28:38;5.20;72.80
9057;DHT22;4563;54.756;9.400;2023-01-24T07:31:05;5.20;72.80
9057;DHT22;4563;54.756;9.400;2023-01-24T07:33:32;5.20;72.80
9057;DHT22;4563;54.756;9.400;2023-01-24T07:35:59;5.20;72.90
9057;DHT22;4563;54.756;9.400;2023-01-24T07:38:26;5.20;72.80
9057;DHT22;4563;54.756;9.400;2023-01-24T07:40:53;5.20;72.80
9057;DHT22;4563;54.756;9.400;2023-01-24T07:43:20;5.20;72.80
9057;DHT22;4563;54.756;9.400;2023-01-24T07:45:48;5.20;72.80
9057;DHT22;4563;54.756;9.400;2023-01-24T07:48:15;5.20;72.80
9057;DHT22;4563;54.756;9.400;2023-01-24T07:50:42;5.20;72.90
9057;DHT22;4563;54.756;9.400;2023-01-24T07:53:08;5.20;72.90
9057;DHT22;4563;54.756;9.400;2023-01-24T07:55:35;5.20;72.90
9057;DHT22;4563;54.756;9.400;2023-01-24T07:58:03;5.20;72.90
9057;DHT22;4563;54.756;9.400;2023-01-24T08:00:31;5.20;73.00
9057;DHT22;4563;54.756;9.400;2023-01-24T08:03:00;5.20;73.00
9057;DHT22;4563;54.756;9.400;2023-01-24T08:05:28;5.20;73.00
9057;DHT22;4563;54.756;9.400;2023-01-24T08:07:55;5.20;73.00
9057;DHT22;4563;54.756;9.400;2023-01-24T08:10:22;5.20;73.00
9057;DHT22;4563;54.756;9.400;2023-01-24T08:12:48;5.20;73.00
9057;DHT22;4563;54.756;9.400;2023-01-24T08:15:16;5.20;73.10
9057;DHT22;4563;54.756;9.400;2023-01-24T08:17:43;5.30;73.20
9057;DHT22;4563;54.756;9.400;2023-01-24T08:20:12;5.30;73.20
9057;DHT22;4563;54.756;9.400;2023-01-24T08:22:40;5.20;73.20
9057;DHT22;4563;54.756;9.400;2023-01-24T08:25:08;5.30;73.30
9057;DHT22;4563;54.756;9.400;2023-01-24T08:27:39;5.20;73.20
9057;DHT22;4563;54.756;9.400;2023-01-24T08:30:07;5.30;73.30
9057;DHT22;4563;54.756;9.400;2023-01-24T08:32:36;5.30;73.30
9057;DHT22;4563;54.756;9.400;2023-01-24T08:35:03;5.30;73.20
9057;DHT22;4563;54.756;9.400;2023-01-24T08:37:33;5.30;73.30
9057;DHT22;4563;54.756;9.400;2023-01-24T08:40:01;5.30;73.30
9057;DHT22;4563;54.756;9.400;2023-01-24T08:42:29;5.30;73.30
9057;DHT22;4563;54.756;9.400;2023-01-24T08:44:55;5.30;73.30
9057;DHT22;4563;54.756;9.400;2023-01-24T08:47:22;5.30;74.10
9057;DHT22;4563;54.756;9.400;2023-01-24T08:49:49;5.30;73.70
9057;DHT22;4563;54.756;9.400;2023-01-24T08:52:16;5.30;73.60
9057;DHT22;4563;54.756;9.400;2023-01-24T08:54:47;5.30;73.60
9057;DHT22;4563;54.756;9.400;2023-01-24T08:57:14;5.30;73.60
9057;DHT22;4563;54.756;9.400;2023-01-24T08:59:41;5.30;73.60
9057;DHT22;4563;54.756;9.400;2023-01-24T09:02:09;5.30;73.60
9057;DHT22;4563;54.756;9.400;2023-01-24T09:04:38;5.40;73.60
9057;DHT22;4563;54.756;9.400;2023-01-24T09:07:04;5.40;73.60
9057;DHT22;4563;54.756;9.400;2023-01-24T09:09:31;5.40;73.60
9057;DHT22;4563;54.756;9.400;2023-01-24T09:12:00;5.40;73.50
9057;DHT22;4563;54.756;9.400;2023-01-24T09:14:27;5.40;73.50
9057;DHT22;4563;54.756;9.400;2023-01-24T09:16:54;5.40;73.40
9057;DHT22;4563;54.756;9.400;2023-01-24T09:19:21;5.40;73.50
9057;DHT22;4563;54.756;9.400;2023-01-24T09:21:49;5.40;73.50
9057;DHT22;4563;54.756;9.400;2023-01-24T09:24:20;5.40;73.50
9057;DHT22;4563;54.756;9.400;2023-01-24T09:26:47;5.40;73.50
9057;DHT22;4563;54.756;9.400;2023-01-24T09:29:15;5.40;73.40
9057;DHT22;4563;54.756;9.400;2023-01-24T09:31:42;5.50;73.50
9057;DHT22;4563;54.756;9.400;2023-01-24T09:34:09;5.50;73.40
9057;DHT22;4563;54.756;9.400;2023-01-24T09:36:35;5.50;73.30
9057;DHT22;4563;54.756;9.400;2023-01-24T09:39:03;5.50;73.30
9057;DHT22;4563;54.756;9.400;2023-01-24T09:41:44;5.50;73.30
9057;DHT22;4563;54.756;9.400;2023-01-24T09:44:19;5.50;73.30
9057;DHT22;4563;54.756;9.400;2023-01-24T09:46:50;5.50;73.30
9057;DHT22;4563;54.756;9.400;2023-01-24T09:49:26;5.50;73.20
9057;DHT22;4563;54.756;9.400;2023-01-24T09:51:55;5.50;73.10
9057;DHT22;4563;54.756;9.400;2023-01-24T09:54:29;5.50;73.00
9057;DHT22;4563;54.756;9.400;2023-01-24T09:56:58;5.60;73.20
9057;DHT22;4563;54.756;9.400;2023-01-24T09:59:35;5.50;73.00
9057;DHT22;4563;54.756;9.400;2023-01-24T10:02:15;5.60;73.30
9057;DHT22;4563;54.756;9.400;2023-01-24T10:04:42;5.60;73.30
9057;DHT22;4563;54.756;9.400;2023-01-24T10:07:26;5.60;73.20
9057;DHT22;4563;54.756;9.400;2023-01-24T10:10:03;5.60;73.30
9057;DHT22;4563;54.756;9.400;2023-01-24T10:12:47;5.60;73.10
9057;DHT22;4563;54.756;9.400;2023-01-24T10:15:26;5.60;73.10
9057;DHT22;4563;54.756;9.400;2023-01-24T10:18:14;5.60;73.10
9057;DHT22;4563;54.756;9.400;2023-01-24T10:20:51;5.60;73.10
9057;DHT22;4563;54.756;9.400;2023-01-24T10:23:20;5.60;73.10
9057;DHT22;4563;54.756;9.400;2023-01-24T10:25:55;5.60;73.10
9057;DHT22;4563;54.756;9.400;2023-01-24T10:28:26;5.60;73.00
9057;DHT22;4563;54.756;9.400;2023-01-24T10:31:04;5.70;73.10
9057;DHT22;4563;54.756;9.400;2023-01-24T10:33:34;5.70;73.10
9057;DHT22;4563;54.756;9.400;2023-01-24T10:36:08;5.70;73.00
9057;DHT22;4563;54.756;9.400;2023-01-24T10:38:35;5.70;73.00
9057;DHT22;4563;54.756;9.400;2023-01-24T10:41:15;5.70;73.00
9057;DHT22;4563;54.756;9.400;2023-01-24T10:43:44;5.80;73.10
9057;DHT22;4563;54.756;9.400;2023-01-24T10:49:08;5.80;73.20
9057;DHT22;4563;54.756;9.400;2023-01-24T10:51:37;5.80;73.30
9057;DHT22;4563;54.756;9.400;2023-01-24T10:54:04;5.80;73.10
9057;DHT22;4563;54.756;9.400;2023-01-24T10:56:43;5.80;73.00
9057;DHT22;4563;54.756;9.400;2023-01-24T10:59:11;5.80;73.00
9057;DHT22;4563;54.756;9.400;2023-01-24T11:01:43;5.90;73.00
9057;DHT22;4563;54.756;9.400;2023-01-24T11:04:17;5.90;73.00
9057;DHT22;4563;54.756;9.400;2023-01-24T11:06:46;5.90;73.00
9057;DHT22;4563;54.756;9.400;2023-01-24T11:09:15;5.90;73.00
9057;DHT22;4563;54.756;9.400;2023-01-24T11:11:44;5.90;73.00
9057;DHT22;4563;54.756;9.400;2023-01-24T11:14:14;5.90;73.00
9057;DHT22;4563;54.756;9.400;2023-01-24T11:16:46;6.00;72.90
9057;DHT22;4563;54.756;9.400;2023-01-24T11:19:26;6.00;72.80
9057;DHT22;4563;54.756;9.400;2023-01-24T11:21:54;6.00;73.00
9057;DHT22;4563;54.756;9.400;2023-01-24T11:24:22;6.00;72.90
9057;DHT22;4563;54.756;9.400;2023-01-24T11:26:57;6.00;72.80
9057;DHT22;4563;54.756;9.400;2023-01-24T11:29:27;6.00;72.70
9057;DHT22;4563;54.756;9.400;2023-01-24T11:31:58;6.00;72.50
9057;DHT22;4563;54.756;9.400;2023-01-24T11:34:44;6.00;72.50
9057;DHT22;4563;54.756;9.400;2023-01-24T11:37:29;6.00;72.60
9057;DHT22;4563;54.756;9.400;2023-01-24T11:40:08;6.00;72.60
9057;DHT22;4563;54.756;9.400;2023-01-24T11:42:46;6.00;72.60
9057;DHT22;4563;54.756;9.400;2023-01-24T11:45:26;6.00;72.50
9057;DHT22;4563;54.756;9.400;2023-01-24T11:48:08;6.10;72.60
9057;DHT22;4563;54.756;9.400;2023-01-24T11:50:45;6.10;72.60
9057;DHT22;4563;54.756;9.400;2023-01-24T11:53:33;6.10;72.60
9057;DHT22;4563;54.756;9.400;2023-01-24T11:56:10;6.10;72.70
9057;DHT22;4563;54.756;9.400;2023-01-24T11:58:51;6.10;72.80
9057;DHT22;4563;54.756;9.400;2023-01-24T12:01:39;6.20;72.80
9057;DHT22;4563;54.756;9.400;2023-01-24T12:04:20;6.10;72.60
9057;DHT22;4563;54.756;9.400;2023-01-24T12:06:53;6.20;72.50
9057;DHT22;4563;54.756;9.400;2023-01-24T12:09:24;6.20;72.40
9057;DHT22;4563;54.756;9.400;2023-01-24T12:11:58;6.20;72.40
9057;DHT22;4563;54.756;9.400;2023-01-24T12:14:56;6.20;72.40
9057;DHT22;4563;54.756;9.400;2023-01-24T12:17:37;6.20;72.60
9057;DHT22;4563;54.756;9.400;2023-01-24T12:20:23;6.20;72.40
9057;DHT22;4563;54.756;9.400;2023-01-24T12:22:54;6.20;72.40
9057;DHT22;4563;54.756;9.400;2023-01-24T12:25:24;6.20;72.20
9057;DHT22;4563;54.756;9.400;2023-01-24T12:27:54;6.20;72.50
9057;DHT22;4563;54.756;9.400;2023-01-24T12:30:29;6.20;72.10
9057;DHT22;4563;54.756;9.400;2023-01-24T12:33:01;6.20;72.10
9057;DHT22;4563;54.756;9.400;2023-01-24T12:35:36;6.20;72.00
9057;DHT22;4563;54.756;9.400;2023-01-24T12:38:14;6.20;72.70
9057;DHT22;4563;54.756;9.400;2023-01-24T12:40:49;6.30;72.10
9057;DHT22;4563;54.756;9.400;2023-01-24T12:43:22;6.30;72.20
9057;DHT22;4563;54.756;9.400;2023-01-24T12:45:59;6.30;72.30
9057;DHT22;4563;54.756;9.400;2023-01-24T12:48:35;6.30;72.40
9057;DHT22;4563;54.756;9.400;2023-01-24T12:51:13;6.30;72.30
9057;DHT22;4563;54.756;9.400;2023-01-24T12:53:52;6.30;72.30
9057;DHT22;4563;54.756;9.400;2023-01-24T12:56:24;6.30;72.30
9057;DHT22;4563;54.756;9.400;2023-01-24T12:58:53;6.30;72.20
9057;DHT22;4563;54.756;9.400;2023-01-24T13:04:37;6.30;72.20
9057;DHT22;4563;54.756;9.400;2023-01-24T13:07:17;6.30;71.90
9057;DHT22;4563;54.756;9.400;2023-01-24T13:09:53;6.30;71.90
9057;DHT22;4563;54.756;9.400;2023-01-24T13:12:23;6.30;71.80
9057;DHT22;4563;54.756;9.400;2023-01-24T13:14:52;6.30;72.30
9057;DHT22;4563;54.756;9.400;2023-01-24T13:17:44;6.30;72.10
9057;DHT22;4563;54.756;9.400;2023-01-24T13:20:23;6.40;72.10
9057;DHT22;4563;54.756;9.400;2023-01-24T13:23:04;6.40;72.00
9057;DHT22;4563;54.756;9.400;2023-01-24T13:25:46;6.30;71.90
9057;DHT22;4563;54.756;9.400;2023-01-24T13:28:22;6.30;71.80
9057;DHT22;4563;54.756;9.400;2023-01-24T13:30:57;6.40;71.90
9057;DHT22;4563;54.756;9.400;2023-01-24T13:33:36;6.40;71.90
9057;DHT22;4563;54.756;9.400;2023-01-24T13:36:07;6.30;71.70
9057;DHT22;4563;54.756;9.400;2023-01-24T13:38:39;6.40;71.70
9057;DHT22;4563;54.756;9.400;2023-01-24T13:41:12;6.40;71.80
9057;DHT22;4563;54.756;9.400;2023-01-24T13:43:58;6.40;72.00
9057;DHT22;4563;54.756;9.400;2023-01-24T13:46:58;6.40;71.80
9057;DHT22;4563;54.756;9.400;2023-01-24T13:49:44;6.40;71.80
9057;DHT22;4563;54.756;9.400;2023-01-24T13:52:43;6.40;71.70
9057;DHT22;4563;54.756;9.400;2023-01-24T13:58:37;6.40;71.80
9057;DHT22;4563;54.756;9.400;2023-01-24T14:01:14;6.30;72.30
9057;DHT22;4563;54.756;9.400;2023-01-24T14:03:53;6.40;72.70
9057;DHT22;4563;54.756;9.400;2023-01-24T14:06:21;6.40;71.60
9057;DHT22;4563;54.756;9.400;2023-01-24T14:09:12;6.30;71.30
9057;DHT22;4563;54.756;9.400;2023-01-24T14:11:56;6.40;71.40
9057;DHT22;4563;54.756;9.400;2023-01-24T14:14:35;6.40;71.50
9057;DHT22;4563;54.756;9.400;2023-01-24T14:17:28;6.40;71.50
9057;DHT22;4563;54.756;9.400;2023-01-24T14:19:56;6.40;71.50
9057;DHT22;4563;54.756;9.400;2023-01-24T14:22:36;6.30;71.40
9057;DHT22;4563;54.756;9.400;2023-01-24T14:25:24;6.30;71.40
9057;DHT22;4563;54.756;9.400;2023-01-24T14:27:57;6.30;71.40
9057;DHT22;4563;54.756;9.400;2023-01-24T14:30:34;6.30;71.30
9057;DHT22;4563;54.756;9.400;2023-01-24T14:33:21;6.30;72.00
9057;DHT22;4563;54.756;9.400;2023-01-24T14:35:59;6.40;70.60
9057;DHT22;4563;54.756;9.400;2023-01-24T14:38:27;6.30;71.20
9057;DHT22;4563;54.756;9.400;2023-01-24T14:40:54;6.30;71.20
9057;DHT22;4563;54.756;9.400;2023-01-24T14:43:33;6.30;72.10
9057;DHT22;4563;54.756;9.400;2023-01-24T14:46:10;6.20;73.20
9057;DHT22;4563;54.756;9.400;2023-01-24T14:48:38;6.20;73.70
9057;DHT22;4563;54.756;9.400;2023-01-24T14:51:06;6.10;73.50
9057;DHT22;4563;54.756;9.400;2023-01-24T14:53:34;6.10;73.60
9057;DHT22;4563;54.756;9.400;2023-01-24T14:56:08;6.10;73.80
9057;DHT22;4563;54.756;9.400;2023-01-24T14:58:35;6.10;73.90
9057;DHT22;4563;54.756;9.400;2023-01-24T15:01:03;6.10;73.90
9057;DHT22;4563;54.756;9.400;2023-01-24T15:03:33;6.10;72.70
9057;DHT22;4563;54.756;9.400;2023-01-24T15:06:02;6.10;72.10
9057;DHT22;4563;54.756;9.400;2023-01-24T15:08:29;6.20;72.00
9057;DHT22;4563;54.756;9.400;2023-01-24T15:11:02;6.20;71.80
9057;DHT22;4563;54.756;9.400;2023-01-24T15:13:33;6.20;71.60
9057;DHT22;4563;54.756;9.400;2023-01-24T15:16:00;6.20;71.50
9057;DHT22;4563;54.756;9.400;2023-01-24T15:18:40;6.20;71.50
9057;DHT22;4563;54.756;9.400;2023-01-24T15:21:22;6.20;71.50
9057;DHT22;4563;54.756;9.400;2023-01-24T15:23:51;6.20;71.60
9057;DHT22;4563;54.756;9.400;2023-01-24T15:26:24;6.10;71.40
9057;DHT22;4563;54.756;9.400;2023-01-24T15:28:51;6.10;71.40
9057;DHT22;4563;54.756;9.400;2023-01-24T15:31:20;6.10;71.90
9057;DHT22;4563;54.756;9.400;2023-01-24T15:33:53;6.10;71.50
9057;DHT22;4563;54.756;9.400;2023-01-24T15:36:23;6.10;71.30
9057;DHT22;4563;54.756;9.400;2023-01-24T15:38:51;6.10;71.30
9057;DHT22;4563;54.756;9.400;2023-01-24T15:41:21;6.10;71.10
9057;DHT22;4563;54.756;9.400;2023-01-24T15:43:50;6.10;71.20
9057;DHT22;4563;54.756;9.400;2023-01-24T15:46:22;6.00;71.30
9057;DHT22;4563;54.756;9.400;2023-01-24T15:49:29;6.00;71.20
9057;DHT22;4563;54.756;9.400;2023-01-24T15:54:54;6.00;71.20
9057;DHT22;4563;54.756;9.400;2023-01-24T15:57:25;5.90;71.20
9057;DHT22;4563;54.756;9.400;2023-01-24T15:59:54;6.00;71.20
9057;DHT22;4563;54.756;9.400;2023-01-24T16:02:21;6.00;71.20
9057;DHT22;4563;54.756;9.400;2023-01-24T16:04:50;5.90;71.20
9057;DHT22;4563;54.756;9.400;2023-01-24T16:07:17;5.90;71.20
9057;DHT22;4563;54.756;9.400;2023-01-24T16:09:44;5.90;71.20
9057;DHT22;4563;54.756;9.400;2023-01-24T16:12:14;5.90;71.20
9057;DHT22;4563;54.756;9.400;2023-01-24T16:14:46;5.80;71.10
9057;DHT22;4563;54.756;9.400;2023-01-24T16:17:13;5.80;71.20
9057;DHT22;4563;54.756;9.400;2023-01-24T16:19:40;5.80;71.10
9057;DHT22;4563;54.756;9.400;2023-01-24T16:22:08;5.80;71.10
9057;DHT22;4563;54.756;9.400;2023-01-24T16:24:35;5.80;71.10
9057;DHT22;4563;54.756;9.400;2023-01-24T16:27:02;5.80;71.10
9057;DHT22;4563;54.756;9.400;2023-01-24T16:29:30;5.80;71.20
9057;DHT22;4563;54.756;9.400;2023-01-24T16:31:59;5.80;71.20
9057;DHT22;4563;54.756;9.400;2023-01-24T16:34:26;5.70;71.00
9057;DHT22;4563;54.756;9.400;2023-01-24T16:36:55;5.70;71.00
9057;DHT22;4563;54.756;9.400;2023-01-24T16:39:23;5.70;71.10
9057;DHT22;4563;54.756;9.400;2023-01-24T16:41:50;5.70;71.10
9057;DHT22;4563;54.756;9.400;2023-01-24T16:44:18;5.70;71.10
9057;DHT22;4563;54.756;9.400;2023-01-24T16:46:49;5.60;71.00
9057;DHT22;4563;54.756;9.400;2023-01-24T16:49:16;5.60;71.20
9057;DHT22;4563;54.756;9.400;2023-01-24T16:51:44;5.60;71.20
9057;DHT22;4563;54.756;9.400;2023-01-24T16:54:11;5.60;71.30
9057;DHT22;4563;54.756;9.400;2023-01-24T16:56:40;5.60;71.30